Time;durP1;ratioP1;P1;durP2;ratioP2;P2;SDS_P1;SDS_P2;PMS_P1;PMS_P2;Temp;Humidity;BMP_temperature;BMP_pressure;BME280_temperature;BME280_humidity;BME280_pressure;Samples;Min_cycle;Max_cycle;Signal;HPM_P1;HPM_P2
2022/10/03 00:02:00;;;;;;;1.08;0.70;;;;;;;15.61;64.19;99493.09;4485943;31;33528;-64
2022/10/03 00:04:40;;;;;;;1.35;0.62;;;;;;;15.64;63.87;99489.25;4497050;31;33977;-65
2022/10/03 00:07:32;;;;;;;1.10;0.70;;;;;;;16.22;62.13;99488.78;4487339;31;33559;-65
2022/10/03 00:10:05;;;;;;;0.55;0.55;;;;;;;16.27;62.07;99493.69;4492889;31;33042;-62
2022/10/03 00:12:57;;;;;;;0.85;0.65;;;;;;;16.12;62.38;99503.38;4494705;31;33720;-65
2022/10/03 00:15:28;;;;;;;1.58;0.82;;;;;;;15.89;63.34;99511.09;4488303;31;34018;-64
2022/10/03 00:18:11;;;;;;;1.73;1.10;;;;;;;15.77;63.42;99505.09;4495049;31;33962;-64
2022/10/03 00:21:07;;;;;;;2.75;1.12;;;;;;;15.45;64.41;99511.81;4483442;31;32781;-67
2022/10/03 00:23:56;;;;;;;1.52;0.88;;;;;;;15.96;63.17;99510.34;4495442;31;35313;-66
2022/10/03 00:26:36;;;;;;;0.60;0.60;;;;;;;16.31;61.64;99516.72;4483791;32;32864;-66
2022/10/03 00:29:23;;;;;;;1.15;0.75;;;;;;;16.68;60.44;99505.63;4486783;31;33887;-66
2022/10/03 00:31:56;;;;;;;1.77;0.80;;;;;;;16.76;60.00;99504.87;4495415;31;34082;-66
2022/10/03 00:34:42;;;;;;;0.80;0.60;;;;;;;16.44;60.68;99517.12;4491994;31;33696;-67
2022/10/03 00:37:30;;;;;;;1.70;0.85;;;;;;;16.51;60.35;99506.53;4483150;31;34097;-66
2022/10/03 00:40:20;;;;;;;1.08;0.90;;;;;;;16.64;59.75;99501.56;4483856;31;32775;-66
2022/10/03 00:43:19;;;;;;;1.17;0.57;;;;;;;16.49;60.42;99506.69;4475606;31;33560;-67
2022/10/03 00:46:24;;;;;;;1.37;0.95;;;;;;;16.70;59.65;99513.59;4486715;31;33727;-66
2022/10/03 00:48:58;;;;;;;0.85;0.82;;;;;;;15.96;61.78;99514.88;4493656;31;33909;-65
2022/10/03 00:51:37;;;;;;;0.75;0.50;;;;;;;15.88;62.49;99518.34;4497709;31;33467;-65
2022/10/03 00:54:06;;;;;;;2.25;0.85;;;;;;;16.17;61.33;99512.69;4484003;31;33376;-65
2022/10/03 00:56:39;;;;;;;1.98;0.95;;;;;;;16.41;60.63;99514.75;4484135;31;34861;-65
2022/10/03 00:59:31;;;;;;;2.17;1.20;;;;;;;15.99;61.62;99512.72;4489933;31;35068;-65
2022/10/03 01:02:18;;;;;;;1.70;0.98;;;;;;;16.33;60.55;99517.38;4492993;31;34698;-65
2022/10/03 01:05:08;;;;;;;1.73;0.95;;;;;;;16.40;60.27;99510.34;4487554;31;34136;-65
2022/10/03 01:07:55;;;;;;;0.45;0.45;;;;;;;15.91;61.67;99512.63;4485826;31;33437;-65
2022/10/03 01:10:52;;;;;;;0.40;0.40;;;;;;;16.30;60.52;99510.44;4494232;31;34020;-65
2022/10/03 01:13:31;;;;;;;1.15;0.70;;;;;;;15.98;61.42;99496.66;4491447;31;35306;-63
2022/10/03 01:16:03;;;;;;;0.75;0.60;;;;;;;15.82;61.99;99490.13;4483294;31;34570;-63
2022/10/03 01:18:40;;;;;;;0.65;0.62;;;;;;;15.35;63.28;99492.16;4486276;31;32569;-63
2022/10/03 01:21:38;;;;;;;1.10;0.93;;;;;;;15.83;61.84;99499.94;4485036;31;34141;-63
2022/10/03 01:24:24;;;;;;;1.75;1.10;;;;;;;15.77;61.99;99507.78;4482313;31;34201;-63
2022/10/03 01:26:59;;;;;;;1.62;1.02;;;;;;;15.35;63.36;99511.88;4497858;31;33204;-62
2022/10/03 01:32:42;;;;;;;2.53;1.25;;;;;;;15.05;64.65;99525.62;4488335;31;35057;-64
2022/10/03 01:35:19;;;;;;;0.47;0.47;;;;;;;15.66;62.54;99534.94;4495185;31;34151;-64
2022/10/03 01:38:08;;;;;;;1.70;1.15;;;;;;;15.10;63.92;99534.13;4495707;31;32075;-69
2022/10/03 01:40:43;;;;;;;2.53;0.65;;;;;;;15.75;62.04;99525.97;4496192;31;34066;-67
2022/10/03 01:43:13;;;;;;;1.52;0.60;;;;;;;15.68;62.38;99539.22;4483069;31;34085;-65
2022/10/03 01:45:47;;;;;;;1.23;0.82;;;;;;;15.63;62.26;99537.94;4483290;31;34688;-65
2022/10/03 01:48:22;;;;;;;1.40;0.80;;;;;;;15.74;61.78;99541.31;4486889;31;33296;-64
2022/10/03 01:50:53;;;;;;;;;;;;;;;15.47;62.82;99536.75;4496690;31;32707;-65
2022/10/03 01:53:46;;;;;;;0.40;0.40;;;;;;;15.81;61.77;99545.09;4497832;31;35348;-65
2022/10/03 01:56:54;;;;;;;1.05;0.77;;;;;;;15.52;62.49;99545.25;4487357;31;32570;-65
2022/10/03 01:59:28;;;;;;;0.88;0.70;;;;;;;15.03;63.84;99538.44;4431834;32;33344;-65
2022/10/03 02:02:19;;;;;;;2.92;1.65;;;;;;;15.05;64.44;99548.03;4479659;31;33694;-65
2022/10/03 02:04:58;;;;;;;1.25;1.15;;;;;;;15.25;63.61;99543.44;4491358;31;34046;-65
2022/10/03 02:07:39;;;;;;;2.35;1.95;;;;;;;15.07;64.05;99543.34;4483319;32;34885;-65
2022/10/03 02:10:49;;;;;;;1.40;0.88;;;;;;;14.86;64.66;99554.38;4484403;31;33163;-64
2022/10/03 02:13:22;;;;;;;0.75;0.50;;;;;;;15.17;63.75;99546.00;4492065;31;34714;-64
2022/10/03 02:15:54;;;;;;;1.35;0.88;;;;;;;14.99;64.17;99556.75;4494209;31;33769;-64
2022/10/03 02:18:45;;;;;;;1.70;1.58;;;;;;;15.25;63.45;99559.63;4488664;31;35263;-64
2022/10/03 02:21:23;;;;;;;1.70;0.85;;;;;;;15.34;63.04;99557.84;4483254;31;34200;-64
2022/10/03 02:24:06;;;;;;;2.70;1.35;;;;;;;15.62;61.67;99564.09;4486607;31;32837;-63
2022/10/03 02:26:46;;;;;;;2.08;0.75;;;;;;;15.55;62.01;99566.53;4497295;31;33719;-64
2022/10/03 02:29:35;;;;;;;0.95;0.60;;;;;;;15.84;61.18;99560.97;4491997;31;33697;-64
2022/10/03 02:32:26;;;;;;;3.25;0.95;;;;;;;15.88;60.79;99561.53;4496917;31;34673;-64
2022/10/03 02:35:21;;;;;;;1.37;0.73;;;;;;;16.01;60.31;99574.63;4491168;31;32191;-64
2022/10/03 02:37:58;;;;;;;1.98;1.02;;;;;;;16.23;59.54;99568.78;4499646;31;35269;-64
2022/10/03 02:40:59;;;;;;;0.60;0.60;;;;;;;15.93;59.98;99571.88;4488761;31;33706;-64
2022/10/03 02:43:46;;;;;;;3.72;0.80;;;;;;;16.13;59.28;99577.97;4484496;31;34426;-64
2022/10/03 02:46:41;;;;;;;0.77;0.68;;;;;;;16.17;59.57;99582.06;4493550;31;33794;-64
2022/10/03 02:49:36;;;;;;;1.17;0.65;;;;;;;16.14;59.29;99568.84;4498783;31;34963;-64
2022/10/03 02:52:09;;;;;;;2.25;1.05;;;;;;;16.17;59.00;99569.41;4500250;31;34843;-64
2022/10/03 02:55:07;;;;;;;2.15;1.25;;;;;;;16.28;58.73;99571.03;4498173;31;34137;-64
2022/10/03 02:57:54;;;;;;;1.08;0.75;;;;;;;16.43;58.25;99574.00;4486226;31;34689;-64
2022/10/03 03:00:33;;;;;;;2.97;1.45;;;;;;;15.57;60.53;99575.34;4495376;31;33975;-65
2022/10/03 03:03:23;;;;;;;1.17;0.68;;;;;;;15.87;59.65;99573.34;4494509;31;33546;-63
2022/10/03 03:06:28;;;;;;;0.98;0.73;;;;;;;16.11;58.92;99566.47;4492273;31;33853;-63
2022/10/03 03:09:29;;;;;;;0.82;0.77;;;;;;;16.09;58.80;99565.78;4500327;31;34072;-63
2022/10/03 03:12:20;;;;;;;1.55;0.90;;;;;;;15.68;59.58;99568.91;4498188;31;35871;-64
2022/10/03 03:15:09;;;;;;;1.70;0.98;;;;;;;16.06;58.88;99570.47;4485863;31;33887;-63
2022/10/03 03:17:45;;;;;;;2.72;1.02;;;;;;;16.09;58.73;99573.87;4497046;31;33368;-64
2022/10/03 03:20:52;;;;;;;2.55;0.70;;;;;;;16.27;58.05;99575.56;4497858;31;32795;-64
2022/10/03 03:23:39;;;;;;;0.82;0.60;;;;;;;16.41;57.55;99581.44;4492800;31;33872;-64
2022/10/03 03:26:41;;;;;;;5.28;1.40;;;;;;;16.41;57.49;99582.28;4490572;31;34073;-63
2022/10/03 03:29:43;;;;;;;1.85;1.17;;;;;;;16.53;57.05;99583.75;4492686;31;33345;-64
2022/10/03 03:32:27;;;;;;;0.65;0.65;;;;;;;16.07;58.13;99577.56;4459873;31;34270;-64
2022/10/03 03:35:30;;;;;;;1.52;1.02;;;;;;;16.40;57.24;99580.56;4494086;31;33932;-64
2022/10/03 03:38:32;;;;;;;1.62;1.05;;;;;;;16.44;56.88;99573.03;4480305;31;33855;-63
2022/10/03 03:41:36;;;;;;;2.03;1.27;;;;;;;16.24;57.91;99575.91;4447135;31;31745;-62
2022/10/03 03:44:13;;;;;;;2.45;0.95;;;;;;;15.60;59.67;99575.03;4442101;31;34586;-64
2022/10/03 03:47:05;;;;;;;1.20;1.05;;;;;;;16.16;57.96;99580.38;4497167;31;33846;-64
2022/10/03 03:49:42;;;;;;;2.72;1.35;;;;;;;16.18;57.90;99590.00;4490561;31;34003;-64
2022/10/03 03:52:48;;;;;;;1.67;1.15;;;;;;;16.48;56.96;99586.03;4487841;31;33436;-62
2022/10/03 03:55:22;;;;;;;1.80;1.07;;;;;;;16.37;57.24;99589.00;4463749;31;33774;-63
2022/10/03 03:58:17;;;;;;;2.10;1.33;;;;;;;16.45;56.91;99590.91;4496575;31;34085;-63
2022/10/03 04:01:02;;;;;;;3.58;1.87;;;;;;;16.63;56.42;99597.16;4483392;31;34971;-63
2022/10/03 04:03:55;;;;;;;1.85;1.58;;;;;;;16.50;56.55;99592.16;4483235;31;31674;-63
2022/10/03 04:06:51;;;;;;;0.85;0.73;;;;;;;16.53;56.45;99602.66;4493733;31;33823;-63
2022/10/03 04:09:18;;;;;;;;;;;;;;;16.59;56.01;99592.19;4491857;31;34151;-63
2022/10/03 04:12:30;;;;;;;1.17;0.95;;;;;;;16.50;56.18;99586.75;4494630;31;34224;-66
2022/10/03 04:15:11;;;;;;;4.60;1.85;;;;;;;16.52;56.11;99590.13;4477759;31;32907;-66
2022/10/03 04:21:06;;;;;;;1.75;1.20;;;;;;;15.96;57.27;99588.59;4482693;31;34118;-63
2022/10/03 04:23:46;;;;;;;2.05;1.37;;;;;;;16.10;57.18;99592.62;4499327;31;34023;-63
2022/10/03 04:26:31;;;;;;;2.75;1.00;;;;;;;16.15;57.19;99584.06;4487242;31;33235;-63
2022/10/03 04:29:24;;;;;;;1.58;0.93;;;;;;;16.19;56.92;99596.25;4496633;31;35070;-63
2022/10/03 04:32:19;;;;;;;0.95;0.82;;;;;;;15.93;57.82;99610.50;4493969;31;34240;-63
2022/10/03 04:35:03;;;;;;;1.67;0.82;;;;;;;15.78;58.26;99614.72;4499426;31;33609;-66
2022/10/03 04:37:40;;;;;;;3.40;1.05;;;;;;;16.15;57.15;99622.72;4498307;31;34475;-66
2022/10/03 04:40:26;;;;;;;6.93;1.23;;;;;;;16.14;57.16;99622.84;4495771;31;34017;-66
2022/10/03 04:43:35;;;;;;;2.20;1.05;;;;;;;16.09;57.16;99623.34;4490098;31;134213;-65
2022/10/03 04:46:22;;;;;;;3.40;1.62;;;;;;;16.13;56.91;99632.81;4432169;32;33951;-66
2022/10/03 04:49:10;;;;;;;1.08;0.73;;;;;;;16.18;56.85;99625.13;4485763;31;33438;-66
2022/10/03 04:51:42;;;;;;;1.65;1.12;;;;;;;16.26;56.53;99641.38;4489422;31;34999;-66
2022/10/03 04:54:23;;;;;;;1.35;1.05;;;;;;;15.86;58.10;99635.53;4495007;31;33881;-68
2022/10/03 04:57:16;;;;;;;3.25;1.37;;;;;;;16.17;57.15;99641.44;4496347;31;33873;-65
2022/10/03 04:59:49;;;;;;;2.50;1.37;;;;;;;16.16;56.99;99639.78;4489916;31;33426;-66
2022/10/03 05:02:20;;;;;;;2.83;1.48;;;;;;;16.00;57.51;99649.38;4490901;31;33661;-65
2022/10/03 05:04:53;;;;;;;1.35;1.12;;;;;;;15.75;58.42;99648.25;4500053;31;35272;-66
2022/10/03 05:07:40;;;;;;;1.55;0.82;;;;;;;15.69;58.21;99640.75;4492638;31;34509;-65
2022/10/03 05:10:46;;;;;;;1.75;1.05;;;;;;;15.46;59.22;99647.50;4496879;31;33532;-66
2022/10/03 05:13:32;;;;;;;1.27;0.95;;;;;;;15.29;59.71;99652.69;4487886;31;32672;-63
2022/10/03 05:16:13;;;;;;;3.03;1.95;;;;;;;15.03;60.53;99652.47;4489593;31;34080;-63
2022/10/03 05:18:51;;;;;;;1.45;1.02;;;;;;;14.86;61.29;99651.37;4485857;31;34419;-65
2022/10/03 05:21:18;;;;;;;1.75;1.27;;;;;;;14.28;63.65;99654.03;4494917;31;33528;-65
2022/10/03 05:24:03;;;;;;;3.37;1.73;;;;;;;14.98;61.57;99651.19;4497438;31;32793;-66
2022/10/03 05:26:57;;;;;;;1.55;1.17;;;;;;;14.88;61.64;99643.97;4499363;31;35009;-65
2022/10/03 05:29:39;;;;;;;1.58;1.17;;;;;;;14.45;62.93;99644.44;4482036;31;33838;-65
2022/10/03 05:32:19;;;;;;;1.48;1.25;;;;;;;14.59;62.63;99638.62;4485425;31;32040;-63
2022/10/03 05:35:14;;;;;;;5.43;3.00;;;;;;;14.62;62.20;99645.59;4485616;31;33503;-62
2022/10/03 05:38:18;;;;;;;3.30;1.42;;;;;;;14.22;63.75;99641.13;4497316;31;35641;-62
2022/10/03 05:41:24;;;;;;;1.17;1.05;;;;;;;14.24;63.48;99633.78;4496419;31;34011;-61
2022/10/03 05:44:15;;;;;;;2.15;1.50;;;;;;;14.12;63.66;99640.28;4462627;32;34436;-61
2022/10/03 05:47:43;;;;;;;1.27;1.00;;;;;;;14.67;61.72;99630.69;4468230;32;33941;-60
2022/10/03 05:50:14;;;;;;;1.10;0.75;;;;;;;13.90;64.05;99639.56;4457077;32;33658;-61
2022/10/03 05:52:52;;;;;;;1.52;0.95;;;;;;;14.35;63.27;99654.31;4462711;32;32583;-61
2022/10/03 05:55:22;;;;;;;;;;;;;;;14.52;62.66;99648.28;4464364;32;33327;-61
2022/10/03 05:58:21;;;;;;;1.98;1.12;;;;;;;14.32;62.58;99649.25;4465106;32;34261;-61
2022/10/03 06:01:16;;;;;;;1.75;1.00;;;;;;;14.39;62.43;99653.91;4461068;32;35266;-61
2022/10/03 06:03:58;;;;;;;1.55;0.98;;;;;;;14.75;61.23;99654.22;4461444;32;33972;-62
2022/10/03 06:07:09;;;;;;;6.12;2.33;;;;;;;14.26;62.46;99649.81;4466189;32;33549;-61
2022/10/03 06:09:39;;;;;;;3.95;1.37;;;;;;;14.55;61.78;99658.78;4465930;32;33833;-61
2022/10/03 06:12:22;;;;;;;1.55;1.05;;;;;;;14.32;62.06;99666.25;4464507;32;33615;-61
2022/10/03 06:15:03;;;;;;;0.60;0.60;;;;;;;13.91;63.95;99678.06;4462734;32;32712;-60
2022/10/03 06:17:49;;;;;;;0.98;0.85;;;;;;;14.41;62.56;99681.56;4465881;32;34705;-64
2022/10/03 06:20:29;;;;;;;1.08;0.88;;;;;;;14.27;62.11;99683.81;4465439;32;33491;-63
2022/10/03 06:23:19;;;;;;;1.87;1.20;;;;;;;14.25;61.97;99688.47;4464081;32;32756;-64
2022/10/03 06:26:25;;;;;;;2.28;1.00;;;;;;;14.10;62.20;99696.13;4456646;32;34901;-63
2022/10/03 06:29:26;;;;;;;2.72;1.17;;;;;;;14.33;61.78;99704.78;4462040;32;33432;-63
2022/10/03 06:32:16;;;;;;;1.67;1.25;;;;;;;14.06;62.35;99702.75;4466274;32;35041;-63
2022/10/03 06:35:17;;;;;;;1.25;0.68;;;;;;;14.70;60.06;99710.34;4463810;32;32539;-63
2022/10/03 06:38:04;;;;;;;2.85;1.45;;;;;;;14.27;61.35;99708.88;4453077;32;33716;-64
2022/10/03 06:40:53;;;;;;;3.97;1.70;;;;;;;14.45;61.09;99715.28;4465373;32;33397;-63
2022/10/03 06:43:47;;;;;;;2.33;0.70;;;;;;;14.64;59.89;99719.87;4486404;31;34704;-63
2022/10/03 06:46:51;;;;;;;5.95;1.23;;;;;;;14.67;59.86;99703.44;4486129;31;35064;-62
2022/10/03 06:49:31;;;;;;;1.15;0.85;;;;;;;14.82;58.98;99708.38;4492676;31;33365;-61
2022/10/03 06:52:06;;;;;;;1.33;1.10;;;;;;;14.57;57.98;99704.41;4488505;31;33339;-61
2022/10/03 06:55:03;;;;;;;1.73;0.90;;;;;;;14.88;58.12;99710.50;4493326;31;34618;-61
2022/10/03 06:58:22;;;;;;;1.15;0.82;;;;;;;14.56;58.12;99700.88;4496357;31;33017;-61
2022/10/03 07:01:11;;;;;;;1.50;0.77;;;;;;;15.13;56.81;99703.66;4466372;31;32453;-61
2022/10/03 07:03:59;;;;;;;2.47;0.62;;;;;;;14.76;58.45;99709.78;4485558;31;34545;-61
2022/10/03 07:07:04;;;;;;;2.30;0.85;;;;;;;14.80;58.37;99710.34;4492756;31;33994;-61
2022/10/03 07:09:52;;;;;;;1.27;0.80;;;;;;;14.97;57.78;99703.41;4488307;31;34869;-62
2022/10/03 07:12:42;;;;;;;2.03;1.40;;;;;;;14.93;58.16;99705.53;4487735;31;34846;-62
2022/10/03 07:15:10;;;;;;;1.85;0.98;;;;;;;15.02;58.41;99709.19;4495458;31;31941;-61
2022/10/03 07:18:15;;;;;;;3.95;1.52;;;;;;;14.66;59.11;99717.88;4497675;31;33719;-61
2022/10/03 07:21:18;;;;;;;3.12;1.37;;;;;;;14.44;59.74;99718.09;4490801;31;33859;-61
2022/10/03 07:24:08;;;;;;;1.75;0.95;;;;;;;14.20;60.55;99713.13;4462720;31;33541;-61
2022/10/03 07:26:57;;;;;;;4.35;1.48;;;;;;;13.99;61.03;99715.91;4495023;31;31830;-62
2022/10/03 07:29:43;;;;;;;1.27;0.95;;;;;;;14.16;60.68;99725.16;4492159;31;34617;-62
2022/10/03 07:32:16;;;;;;;2.62;0.95;;;;;;;14.24;60.63;99725.31;4483401;31;34579;-62
2022/10/03 07:35:02;;;;;;;1.90;1.15;;;;;;;14.86;59.47;99725.94;4498217;31;32392;-62
2022/10/03 07:41:31;;;;;;;2.47;1.45;;;;;;;14.36;59.90;99726.91;4489830;31;33786;-61
2022/10/03 07:44:10;;;;;;;1.08;0.98;;;;;;;14.70;59.34;99721.13;4494786;31;34056;-62
2022/10/03 07:46:59;;;;;;;1.75;1.08;;;;;;;14.15;61.03;99721.59;4497735;31;33792;-61
2022/10/03 07:49:39;;;;;;;2.45;1.15;;;;;;;14.53;59.39;99716.47;4489037;31;32082;-61
2022/10/03 07:52:57;;;;;;;4.65;1.75;;;;;;;14.30;59.84;99723.91;4493996;31;33744;-62
2022/10/03 07:55:46;;;;;;;1.85;0.90;;;;;;;14.27;59.67;99729.56;4478055;31;34471;-61
2022/10/03 07:58:30;;;;;;;3.58;1.37;;;;;;;14.86;58.44;99731.34;4496257;31;33659;-62
2022/10/03 08:01:29;;;;;;;2.67;0.85;;;;;;;15.07;58.12;99733.87;4494224;31;33377;-61
2022/10/03 08:04:00;;;;;;;3.70;1.65;;;;;;;14.80;57.71;99729.22;4468134;31;33915;-62
2022/10/03 08:06:42;;;;;;;5.28;1.62;;;;;;;14.66;57.99;99733.19;4489504;31;32744;-61
2022/10/03 08:09:25;;;;;;;2.40;1.23;;;;;;;14.81;57.59;99734.47;4496303;31;33909;-61
2022/10/03 08:12:14;;;;;;;2.80;1.27;;;;;;;14.69;58.13;99732.91;4497107;31;33447;-61
2022/10/03 08:14:56;;;;;;;5.03;1.05;;;;;;;15.16;56.02;99729.50;4498033;31;35272;-62
2022/10/03 08:17:43;;;;;;;3.58;1.50;;;;;;;14.72;57.84;99740.72;4496865;31;33910;-62
2022/10/03 08:20:33;;;;;;;1.30;0.95;;;;;;;15.12;56.47;99740.56;4498007;31;34982;-62
2022/10/03 08:23:19;;;;;;;3.78;1.40;;;;;;;15.10;56.50;99739.00;4485128;31;33448;-61
2022/10/03 08:26:16;;;;;;;3.10;1.50;;;;;;;14.98;57.38;99751.75;4487384;31;34148;-61
2022/10/03 08:29:11;;;;;;;1.80;0.98;;;;;;;15.19;54.95;99735.44;4484163;31;33567;-61
2022/10/03 08:31:58;;;;;;;1.55;1.00;;;;;;;15.70;54.64;99726.13;4483696;31;32141;-62
2022/10/03 08:34:59;;;;;;;21.77;1.10;;;;;;;15.49;55.16;99733.53;4493983;31;33087;-61
2022/10/03 08:37:39;;;;;;;2.67;0.90;;;;;;;15.65;54.12;99722.97;4499833;31;34005;-62
2022/10/03 08:40:34;;;;;;;3.20;1.08;;;;;;;15.71;54.12;99733.19;4500351;31;32765;-61
2022/10/03 08:43:39;;;;;;;0.88;0.80;;;;;;;15.90;53.03;99740.38;4489956;31;33824;-61
2022/10/03 08:46:33;;;;;;;3.60;1.30;;;;;;;15.93;53.43;99736.53;4495060;31;34453;-62
2022/10/03 08:49:34;;;;;;;1.92;0.88;;;;;;;15.98;52.88;99729.66;4491952;31;32359;-61
2022/10/03 08:52:20;;;;;;;1.17;0.93;;;;;;;15.80;52.49;99721.50;4486692;31;34322;-61
2022/10/03 08:55:14;;;;;;;5.82;1.23;;;;;;;15.75;52.38;99733.75;4484609;31;33375;-61
2022/10/03 08:58:17;;;;;;;4.65;1.37;;;;;;;15.90;53.13;99724.16;4489602;31;34577;-61
2022/10/03 09:01:19;;;;;;;1.73;1.42;;;;;;;15.76;52.77;99725.53;4485930;31;34982;-62
2022/10/03 09:04:06;;;;;;;4.28;1.27;;;;;;;16.02;52.74;99738.34;4489615;31;35115;-61
2022/10/03 09:06:58;;;;;;;2.90;1.70;;;;;;;16.01;53.08;99726.66;4488437;31;34955;-62
2022/10/03 09:10:02;;;;;;;10.48;1.67;;;;;;;16.00;52.40;99738.47;4495451;31;33546;-64
2022/10/03 09:13:04;;;;;;;2.25;1.05;;;;;;;15.77;53.34;99737.16;4495909;31;34380;-61
2022/10/03 09:16:03;;;;;;;1.35;0.77;;;;;;;16.17;53.21;99744.06;4484110;31;35092;-62
2022/10/03 09:18:56;;;;;;;3.12;1.55;;;;;;;16.15;52.44;99746.09;4493085;31;33437;-61
2022/10/03 09:21:32;;;;;;;1.62;1.08;;;;;;;16.42;51.69;99745.19;4483612;31;33479;-61
2022/10/03 09:24:28;;;;;;;2.65;1.30;;;;;;;16.28;52.48;99746.56;4494074;31;33677;-61
2022/10/03 09:27:08;;;;;;;2.35;1.25;;;;;;;15.86;53.97;99740.78;4481706;31;35252;-61
2022/10/03 09:30:11;;;;;;;1.37;0.90;;;;;;;16.22;53.60;99752.56;4485037;31;33718;-60
2022/10/03 09:33:15;;;;;;;3.35;1.20;;;;;;;17.06;51.20;99754.12;4489641;31;34439;-61
2022/10/03 09:35:44;;;;;;;1.70;1.30;;;;;;;16.83;51.27;99757.31;4499787;31;34679;-62
2022/10/03 09:38:36;;;;;;;6.40;1.85;;;;;;;16.44;52.70;99760.25;4497264;31;34797;-62
2022/10/03 09:41:27;;;;;;;1.35;0.73;;;;;;;16.00;52.72;99761.91;4492597;31;34404;-61
2022/10/03 09:44:19;;;;;;;2.30;1.23;;;;;;;16.46;51.92;99760.94;4489526;31;33066;-61
2022/10/03 09:47:21;;;;;;;4.15;1.83;;;;;;;16.26;52.33;99770.16;4493866;31;34055;-61
2022/10/03 09:49:51;;;;;;;3.90;1.17;;;;;;;16.35;52.34;99771.97;4498400;31;35214;-62
2022/10/03 09:52:48;;;;;;;3.35;1.60;;;;;;;16.82;50.55;99766.44;4489164;31;32217;-61
2022/10/03 09:55:35;;;;;;;16.92;1.27;;;;;;;16.57;51.64;99762.59;4493034;31;33252;-62
2022/10/03 09:58:20;;;;;;;6.87;1.42;;;;;;;16.48;51.84;99769.75;4495813;31;34910;-61
2022/10/03 10:01:06;;;;;;;3.05;0.98;;;;;;;16.20;52.12;99777.00;4483583;31;32697;-62
2022/10/03 10:03:46;;;;;;;8.07;1.35;;;;;;;16.19;51.99;99777.19;4488494;31;35150;-62
2022/10/03 10:06:22;;;;;;;3.25;1.73;;;;;;;16.30;52.01;99782.34;4491306;31;33548;-62
2022/10/03 10:09:12;;;;;;;5.10;1.48;;;;;;;16.29;51.69;99765.31;4495323;31;34951;-60
2022/10/03 10:12:08;;;;;;;7.93;1.85;;;;;;;16.76;50.75;99757.06;4495819;31;34930;-62
2022/10/03 10:14:45;;;;;;;2.47;1.02;;;;;;;16.90;49.87;99776.47;4498587;31;34450;-62
2022/10/03 10:17:45;;;;;;;1.37;0.70;;;;;;;17.02;49.56;99774.38;4495698;31;33192;-63
2022/10/03 10:20:19;;;;;;;3.03;1.25;;;;;;;16.68;50.06;99766.91;4487953;31;33994;-62
2022/10/03 10:23:02;;;;;;;2.13;1.00;;;;;;;16.75;49.73;99778.84;4497936;31;33994;-61
2022/10/03 10:25:32;;;;;;;4.80;1.30;;;;;;;16.63;49.82;99775.50;4490651;31;32508;-62
2022/10/03 10:28:25;;;;;;;4.57;0.73;;;;;;;16.25;50.62;99769.31;4489817;31;32657;-62
2022/10/03 10:31:16;;;;;;;2.67;0.70;;;;;;;16.46;50.75;99771.75;4495888;31;33663;-62
2022/10/03 10:34:05;;;;;;;2.15;1.15;;;;;;;16.41;51.07;99774.06;4486367;31;34890;-61
2022/10/03 10:37:07;;;;;;;2.90;1.20;;;;;;;16.30;50.90;99785.06;4498386;31;33100;-62
2022/10/03 10:39:58;;;;;;;4.85;0.90;;;;;;;17.04;49.68;99770.50;4499794;31;34098;-62
2022/10/03 10:42:53;;;;;;;3.12;1.00;;;;;;;17.06;50.30;99778.47;4482179;31;32489;-63
2022/10/03 10:45:34;;;;;;;2.62;1.45;;;;;;;16.99;49.55;99779.09;4486441;31;33009;-63
2022/10/03 10:48:45;;;;;;;1.62;0.93;;;;;;;16.97;50.30;99772.97;4496679;31;33660;-62
2022/10/03 10:51:50;;;;;;;1.08;0.77;;;;;;;16.72;50.53;99771.00;4496156;31;31960;-62
2022/10/03 10:54:17;;;;;;;1.75;0.77;;;;;;;16.72;51.19;99768.28;4497454;31;32740;-61
2022/10/03 10:57:21;;;;;;;1.12;0.95;;;;;;;16.70;50.93;99762.22;4496717;31;33926;-61
2022/10/03 11:00:10;;;;;;;2.83;1.05;;;;;;;16.65;51.26;99765.37;4491600;31;33992;-61
2022/10/03 11:03:02;;;;;;;3.53;1.40;;;;;;;16.79;50.90;99760.44;4487433;31;33569;-61
2022/10/03 11:05:41;;;;;;;3.08;1.45;;;;;;;17.02;50.93;99771.69;4487910;31;33709;-61
2022/10/03 11:08:40;;;;;;;0.88;0.62;;;;;;;16.30;53.37;99760.75;4492448;31;34354;-61
2022/10/03 11:11:36;;;;;;;4.50;1.40;;;;;;;16.44;53.25;99754.84;4487940;31;34985;-61
2022/10/03 11:14:12;;;;;;;2.25;0.93;;;;;;;16.96;51.23;99760.47;4486858;31;34504;-61
2022/10/03 11:17:01;;;;;;;3.17;1.27;;;;;;;16.65;51.90;99765.37;4499357;31;33648;-62
2022/10/03 11:19:47;;;;;;;3.83;1.10;;;;;;;16.63;52.26;99761.97;4492542;31;32506;-61
2022/10/03 11:22:47;;;;;;;1.35;0.85;;;;;;;16.81;51.90;99759.31;4499571;31;32630;-62
2022/10/03 11:25:23;;;;;;;2.37;1.02;;;;;;;16.07;52.53;99758.47;4474644;31;33032;-61
2022/10/03 11:28:16;;;;;;;1.30;0.55;;;;;;;16.96;50.69;99759.63;4499348;31;33759;-61
2022/10/03 11:31:00;;;;;;;1.20;0.60;;;;;;;17.30;50.27;99756.16;4497176;31;32851;-61
2022/10/03 11:33:47;;;;;;;1.00;0.80;;;;;;;16.21;51.46;99759.84;4497253;31;34371;-61
2022/10/03 11:36:33;;;;;;;1.40;1.20;;;;;;;16.50;50.41;99756.94;4496003;31;33365;-62
2022/10/03 11:39:04;;;;;;;6.85;1.48;;;;;;;16.62;51.49;99754.84;4497596;31;34867;-61
2022/10/03 11:42:00;;;;;;;1.70;0.65;;;;;;;16.48;51.16;99755.41;4481292;31;33900;-61
2022/10/03 11:44:33;;;;;;;1.30;0.75;;;;;;;16.54;51.80;99768.28;4496602;31;33333;-61
2022/10/03 11:47:46;;;;;;;1.75;1.15;;;;;;;16.47;51.92;99765.34;4481299;31;34543;-61
2022/10/03 11:50:33;;;;;;;0.65;0.40;;;;;;;16.47;50.79;99761.81;4492837;31;34749;-62
2022/10/03 11:53:18;;;;;;;1.45;0.75;;;;;;;16.50;51.18;99766.88;4496852;31;34023;-61
2022/10/03 11:55:50;;;;;;;3.72;1.52;;;;;;;16.50;51.56;99751.53;4495373;31;32913;-62
2022/10/03 11:58:33;;;;;;;2.45;1.33;;;;;;;16.77;51.46;99747.09;4494137;31;33563;-62
2022/10/03 12:01:26;;;;;;;2.03;0.85;;;;;;;16.65;51.59;99751.00;4492497;31;33420;-62
2022/10/03 12:04:19;;;;;;;3.22;1.40;;;;;;;16.71;50.73;99748.53;4486183;31;32697;-61
2022/10/03 12:09:44;;;;;;;2.00;1.12;;;;;;;16.59;50.49;99754.31;4487981;31;33358;-63
2022/10/03 12:12:17;;;;;;;2.17;0.82;;;;;;;16.64;50.92;99755.56;4488038;31;32750;-62
2022/10/03 12:14:48;;;;;;;1.77;1.23;;;;;;;16.74;50.40;99748.22;4496483;31;33101;-62
2022/10/03 12:17:32;;;;;;;0.60;0.52;;;;;;;16.43;51.34;99755.00;4487643;31;33831;-64
2022/10/03 12:20:21;;;;;;;3.28;1.33;;;;;;;16.80;49.84;99744.09;4480377;31;32948;-61
2022/10/03 12:22:52;;;;;;;1.65;0.70;;;;;;;16.25;51.30;99750.41;4488804;31;35122;-61
2022/10/03 12:25:22;;;;;;;2.17;0.85;;;;;;;16.73;49.95;99760.06;4490333;31;32717;-61
2022/10/03 12:28:20;;;;;;;2.12;0.73;;;;;;;16.70;50.64;99751.41;4483417;31;34153;-61
2022/10/03 12:30:50;;;;;;;2.92;1.05;;;;;;;16.53;51.36;99753.06;4476400;31;33327;-61
2022/10/03 12:33:53;;;;;;;0.85;0.70;;;;;;;15.95;50.95;99739.91;4491252;31;33693;-61
2022/10/03 12:36:31;;;;;;;2.08;0.77;;;;;;;16.36;50.34;99754.75;4487095;31;33756;-61
2022/10/03 12:39:38;;;;;;;0.73;0.70;;;;;;;16.45;49.94;99743.03;4483945;31;33683;-61
2022/10/03 12:42:29;;;;;;;2.37;1.02;;;;;;;16.25;49.48;99746.88;4493657;31;33134;-61
2022/10/03 12:45:03;;;;;;;3.30;0.95;;;;;;;16.82;48.40;99746.62;4489994;31;33832;-62
2022/10/03 12:47:53;;;;;;;2.53;0.90;;;;;;;16.71;49.15;99740.44;4496962;31;33611;-61
2022/10/03 12:50:56;;;;;;;1.87;0.85;;;;;;;16.45;48.26;99743.03;4496664;31;35025;-61
2022/10/03 12:53:37;;;;;;;2.30;0.82;;;;;;;16.71;47.33;99742.28;4483216;31;34653;-61
2022/10/03 12:56:17;;;;;;;1.48;0.98;;;;;;;17.48;46.90;99734.50;4483533;31;30950;-62
2022/10/03 12:59:11;;;;;;;1.17;0.60;;;;;;;17.58;46.22;99725.25;4484292;31;32329;-61
2022/10/03 13:01:45;;;;;;;2.28;0.98;;;;;;;17.06;47.26;99740.59;4488953;31;34025;-62
2022/10/03 13:04:18;;;;;;;1.65;0.75;;;;;;;16.48;50.34;99758.94;4491125;31;33154;-61
2022/10/03 13:06:52;;;;;;;3.58;1.08;;;;;;;16.75;52.96;99782.38;4492044;31;33881;-61
2022/10/03 13:09:53;;;;;;;2.72;0.90;;;;;;;15.92;58.21;99767.19;4494735;31;32625;-60
2022/10/03 13:12:39;;;;;;;1.73;0.93;;;;;;;15.72;59.89;99769.12;4494521;31;32635;-61
2022/10/03 13:15:36;;;;;;;1.08;0.75;;;;;;;15.96;59.98;99771.31;4495216;31;33447;-61
2022/10/03 13:18:31;;;;;;;1.67;0.93;;;;;;;15.63;60.29;99762.72;4485451;31;34749;-61
2022/10/03 13:21:20;;;;;;;0.82;0.50;;;;;;;15.61;60.65;99759.34;4491004;31;32648;-61
2022/10/03 13:24:35;;;;;;;1.17;0.57;;;;;;;15.89;58.73;99744.06;4494088;31;34747;-62